createdAt,value
2023-04-15T00:02:00.981Z,24.27
2023-04-15T00:04:31.704Z,24.38
2023-04-15T00:07:00.487Z,25.05
2023-04-15T00:09:28.800Z,26.30
2023-04-15T00:11:57.753Z,23.85
2023-04-15T00:14:28.129Z,24.42
2023-04-15T00:16:57.416Z,24.27
2023-04-15T00:19:25.862Z,24.10
2023-04-15T00:21:54.206Z,25.90
2023-04-15T00:24:23.245Z,24.75
2023-04-15T00:26:51.669Z,25.95
2023-04-15T00:29:20.360Z,24.50
2023-04-15T00:31:50.054Z,25.80
2023-04-15T00:34:18.450Z,24.60
2023-04-15T00:36:46.949Z,25.63
2023-04-15T00:39:16.323Z,25.98
2023-04-15T00:41:45.615Z,26.25
2023-04-15T00:44:14.331Z,26.67
2023-04-15T00:46:44.247Z,25.30
2023-04-15T00:49:14.313Z,26.55
2023-04-15T00:51:42.643Z,24.88
2023-04-15T00:54:11.633Z,25.65
2023-04-15T00:56:40.951Z,26.08
2023-04-15T00:59:10.073Z,25.83
2023-04-15T01:01:38.858Z,26.73
2023-04-15T01:04:10.172Z,26.63
2023-04-15T01:06:39.955Z,26.88
2023-04-15T01:09:08.412Z,27.10
2023-04-15T01:11:36.917Z,25.30
2023-04-15T01:14:05.841Z,27.27
2023-04-15T01:16:34.303Z,27.55
2023-04-15T01:19:03.448Z,27.38
2023-04-15T01:21:31.876Z,28.90
2023-04-15T01:24:02.673Z,28.27
2023-04-15T01:26:32.404Z,28.60
2023-04-15T01:29:01.480Z,26.80
2023-04-15T01:31:29.923Z,28.38
2023-04-15T01:33:58.506Z,27.90
2023-04-15T01:36:26.860Z,27.17
2023-04-15T01:38:55.470Z,27.13
2023-04-15T01:41:26.600Z,27.73
2023-04-15T01:43:56.728Z,28.30
2023-04-15T01:46:25.289Z,27.70
2023-04-15T01:48:53.597Z,27.42
2023-04-15T01:51:22.021Z,27.55
2023-04-15T01:53:50.467Z,27.52
2023-04-15T01:56:18.818Z,27.95
2023-04-15T01:58:47.554Z,27.90
2023-04-15T02:01:19.555Z,28.35
2023-04-15T02:03:48.715Z,28.48
2023-04-15T02:06:18.350Z,27.02
2023-04-15T02:08:46.662Z,27.30
2023-04-15T02:11:15.476Z,27.55
2023-04-15T02:13:44.008Z,29.60
2023-04-15T02:16:20.763Z,26.52
2023-04-15T02:18:49.123Z,28.27
2023-04-15T02:21:18.967Z,26.60
2023-04-15T02:23:48.367Z,28.70
2023-04-15T02:26:16.951Z,28.90
2023-04-15T02:28:45.327Z,29.08
2023-04-15T02:31:13.718Z,29.90
2023-04-15T02:33:43.601Z,32.90
2023-04-15T02:36:12.439Z,29.00
2023-04-15T02:38:42.378Z,27.92
2023-04-15T02:41:10.892Z,28.85
2023-04-15T02:43:39.971Z,27.45
2023-04-15T02:46:08.451Z,26.38
2023-04-15T02:48:37.085Z,27.38
2023-04-15T02:51:19.798Z,26.17
2023-04-15T02:53:48.923Z,29.02
2023-04-15T02:56:17.495Z,26.48
2023-04-15T02:58:46.437Z,27.42
2023-04-15T03:01:15.059Z,26.42
2023-04-15T03:03:43.741Z,28.52
2023-04-15T03:06:12.158Z,26.00
2023-04-15T03:08:41.833Z,27.33
2023-04-15T03:11:10.200Z,26.77
2023-04-15T03:13:39.514Z,26.10
2023-04-15T03:16:08.506Z,26.63
2023-04-15T03:18:36.872Z,27.17
2023-04-15T03:21:05.292Z,27.05
2023-04-15T03:23:33.653Z,26.10
2023-04-15T03:26:05.037Z,26.60
2023-04-15T03:28:33.707Z,27.30
2023-04-15T03:31:02.146Z,25.00
2023-04-15T03:33:30.753Z,26.00
2023-04-15T03:35:59.164Z,27.88
2023-04-15T03:38:27.517Z,25.67
2023-04-15T03:40:55.832Z,26.58
2023-04-15T03:43:25.697Z,25.13
2023-04-15T03:45:54.096Z,27.02
2023-04-15T03:48:22.451Z,25.35
2023-04-15T03:50:50.952Z,25.55
2023-04-15T03:53:19.306Z,25.20
2023-04-15T03:55:47.752Z,24.55
2023-04-15T03:58:16.332Z,25.20
2023-04-15T04:00:46.000Z,24.67
2023-04-15T04:03:14.594Z,24.35
2023-04-15T04:05:44.417Z,24.20
2023-04-15T04:08:13.978Z,26.23
2023-04-15T04:10:42.389Z,24.58
2023-04-15T04:13:10.739Z,24.15
2023-04-15T04:15:39.198Z,24.58
2023-04-15T04:18:08.925Z,23.08
2023-04-15T04:20:37.411Z,23.73
2023-04-15T04:23:06.023Z,23.88
2023-04-15T04:25:34.413Z,23.88
2023-04-15T04:28:02.795Z,23.33
2023-04-15T04:30:31.324Z,23.42
2023-04-15T04:32:59.860Z,24.10
2023-04-15T04:35:29.587Z,22.95
2023-04-15T04:37:57.951Z,23.48
2023-04-15T04:40:26.365Z,22.05
2023-04-15T04:42:54.838Z,21.98
2023-04-15T04:45:23.618Z,22.17
2023-04-15T04:47:51.985Z,23.05
2023-04-15T04:50:20.440Z,21.88
2023-04-15T04:52:50.631Z,21.83
2023-04-15T04:55:19.183Z,21.63
2023-04-15T04:57:47.763Z,22.38
2023-04-15T05:00:16.420Z,22.67
2023-04-15T05:02:45.205Z,22.05
2023-04-15T05:05:14.163Z,22.48
2023-04-15T05:07:42.623Z,21.98
2023-04-15T05:10:12.826Z,21.58
2023-04-15T05:12:41.245Z,20.33
2023-04-15T05:15:10.828Z,21.52
2023-04-15T05:17:39.162Z,20.95
2023-04-15T05:20:09.684Z,20.00
2023-04-15T05:22:38.268Z,19.42
2023-04-15T05:25:07.297Z,19.15
2023-04-15T05:27:37.013Z,20.17
2023-04-15T05:30:06.119Z,17.77
2023-04-15T05:32:34.522Z,18.23
2023-04-15T05:35:03.126Z,18.77
2023-04-15T05:37:31.502Z,17.85
2023-04-15T05:39:59.864Z,17.70
2023-04-15T05:42:28.240Z,18.00
2023-04-15T05:44:58.315Z,17.08
2023-04-15T05:47:27.438Z,17.55
2023-04-15T05:49:55.940Z,16.73
2023-04-15T05:52:24.334Z,16.52
2023-04-15T05:54:52.726Z,16.50
2023-04-15T05:57:21.246Z,16.30
2023-04-15T05:59:51.607Z,16.70
2023-04-15T06:02:21.376Z,16.33
2023-04-15T06:04:50.041Z,16.63
2023-04-15T06:07:18.407Z,15.88
2023-04-15T06:09:46.761Z,16.38
2023-04-15T06:12:15.167Z,15.15
2023-04-15T06:14:43.789Z,15.57
2023-04-15T06:17:14.866Z,15.25
2023-04-15T06:19:44.565Z,15.32
2023-04-15T06:22:12.885Z,15.80
2023-04-15T06:24:46.156Z,15.35
2023-04-15T06:27:14.508Z,15.18
2023-04-15T06:29:42.834Z,15.23
2023-04-15T06:32:12.333Z,15.00
2023-04-15T06:34:40.799Z,15.65
2023-04-15T06:37:11.137Z,15.48
2023-04-15T06:39:39.493Z,15.25
2023-04-15T06:42:07.934Z,15.15
2023-04-15T06:44:37.113Z,15.65
2023-04-15T06:47:05.485Z,13.75
2023-04-15T06:49:34.079Z,14.75
2023-04-15T06:52:02.818Z,14.55
2023-04-15T06:54:32.646Z,13.60
2023-04-15T06:57:01.720Z,14.23
2023-04-15T06:59:30.040Z,14.38
2023-04-15T07:01:58.401Z,14.07
2023-04-15T07:04:27.812Z,14.27
2023-04-15T07:06:56.871Z,14.27
2023-04-15T07:09:25.726Z,13.63
2023-04-15T07:11:55.470Z,13.70
2023-04-15T07:14:23.797Z,14.02
2023-04-15T07:16:52.355Z,13.05
2023-04-15T07:19:20.792Z,12.93
2023-04-15T07:21:49.157Z,13.32
2023-04-15T07:24:19.624Z,13.45
2023-04-15T07:26:48.740Z,13.23
2023-04-15T07:29:18.414Z,13.50
2023-04-15T07:31:46.787Z,13.55
2023-04-15T07:34:15.146Z,13.68
2023-04-15T07:36:43.513Z,13.57
2023-04-15T07:39:11.961Z,14.35
2023-04-15T07:41:40.317Z,14.80
2023-04-15T07:44:09.261Z,13.73
2023-04-15T07:46:39.197Z,15.15
2023-04-15T07:49:07.642Z,14.32
2023-04-15T07:51:36.149Z,14.68
2023-04-15T07:54:04.676Z,15.88
2023-04-15T07:56:33.062Z,14.43
2023-04-15T07:59:02.352Z,15.55
2023-04-15T08:01:31.546Z,15.05
2023-04-15T08:04:01.760Z,14.35
2023-04-15T08:06:30.340Z,14.73
2023-04-15T08:08:58.762Z,14.98
2023-04-15T08:11:27.718Z,18.95
2023-04-15T08:13:56.141Z,14.80
2023-04-15T08:16:26.964Z,15.27
2023-04-15T08:18:58.576Z,15.32
2023-04-15T08:21:30.789Z,14.75
2023-04-15T08:24:00.153Z,15.55
2023-04-15T08:26:28.500Z,16.52
2023-04-15T08:28:57.442Z,15.02
2023-04-15T08:31:27.954Z,15.13
2023-04-15T08:33:57.969Z,15.45
2023-04-15T08:36:27.113Z,15.30
2023-04-15T08:38:56.962Z,16.17
2023-04-15T08:41:27.530Z,16.05
2023-04-15T08:43:59.169Z,15.88
2023-04-15T08:46:27.942Z,15.20
2023-04-15T08:48:58.428Z,16.23
2023-04-15T08:51:27.823Z,16.25
2023-04-15T08:53:57.674Z,18.15
2023-04-15T08:56:27.733Z,16.08
2023-04-15T08:58:56.233Z,16.80
2023-04-15T09:01:24.873Z,15.50
2023-04-15T09:03:54.527Z,16.73
2023-04-15T09:06:23.805Z,16.00
2023-04-15T09:08:52.915Z,15.57
2023-04-15T09:11:23.517Z,17.88
2023-04-15T09:13:52.287Z,15.45
2023-04-15T09:16:20.718Z,16.23
2023-04-15T09:18:49.113Z,16.67
2023-04-15T09:21:19.229Z,18.35
2023-04-15T09:23:58.249Z,15.45
2023-04-15T09:26:35.417Z,15.95
2023-04-15T09:29:07.476Z,16.65
2023-04-15T09:31:36.747Z,16.08
2023-04-15T09:34:05.730Z,16.52
2023-04-15T09:36:52.621Z,15.27
2023-04-15T09:39:21.496Z,16.42
2023-04-15T09:42:06.748Z,15.90
2023-04-15T09:44:35.625Z,15.98
2023-04-15T09:47:04.183Z,15.70
2023-04-15T09:49:32.912Z,15.38
2023-04-15T09:52:06.293Z,15.57
2023-04-15T09:54:36.590Z,16.17
2023-04-15T09:57:10.927Z,16.48
2023-04-15T10:02:08.356Z,14.77
2023-04-15T10:04:39.869Z,15.40
2023-04-15T10:07:10.049Z,15.90
2023-04-15T10:09:40.048Z,17.88
2023-04-15T10:12:10.337Z,15.88
2023-04-15T10:14:40.830Z,16.08
2023-04-15T10:17:12.511Z,16.52
2023-04-15T10:19:42.553Z,16.55
2023-04-15T10:22:11.704Z,23.80
2023-04-15T10:24:40.897Z,17.00
2023-04-15T10:27:11.678Z,16.02
2023-04-15T10:29:40.629Z,15.52
2023-04-15T10:32:10.357Z,15.68
2023-04-15T10:34:39.414Z,15.20
2023-04-15T10:37:11.338Z,16.25
2023-04-15T10:39:41.650Z,15.13
2023-04-15T10:42:12.400Z,15.82
2023-04-15T10:44:43.104Z,14.18
2023-04-15T10:47:13.609Z,14.38
2023-04-15T10:49:46.480Z,14.82
2023-04-15T10:52:16.513Z,14.88
2023-04-15T10:54:45.945Z,15.88
2023-04-15T10:57:24.451Z,16.77
2023-04-15T11:00:11.361Z,15.68
2023-04-15T11:02:42.291Z,14.75
2023-04-15T11:05:12.879Z,14.52
2023-04-15T11:07:48.583Z,13.45
2023-04-15T11:10:55.979Z,13.95
2023-04-15T11:13:29.501Z,13.70
2023-04-15T11:16:01.328Z,16.52
2023-04-15T11:18:35.447Z,16.10
2023-04-15T11:21:06.725Z,14.52
2023-04-15T11:23:38.473Z,14.88
2023-04-15T11:26:09.762Z,17.33
2023-04-15T11:28:41.418Z,19.75
2023-04-15T11:31:12.026Z,16.63
2023-04-15T11:33:47.180Z,17.48
2023-04-15T11:36:15.708Z,28.95
2023-04-15T11:38:45.838Z,18.50
2023-04-15T11:41:14.478Z,14.60
2023-04-15T11:43:44.168Z,16.50
2023-04-15T11:46:12.699Z,19.90
2023-04-15T11:48:44.784Z,15.05
2023-04-15T11:51:14.769Z,15.45
2023-04-15T11:53:45.887Z,15.27
2023-04-15T11:56:19.338Z,15.30
2023-04-15T11:58:50.956Z,16.43
2023-04-15T12:01:19.779Z,15.40
2023-04-15T12:03:49.237Z,13.65
2023-04-15T12:06:20.071Z,14.00
2023-04-15T12:09:05.795Z,15.35
2023-04-15T12:11:39.721Z,14.57
2023-04-15T12:14:12.804Z,15.57
2023-04-15T12:16:48.703Z,16.25
2023-04-15T12:19:22.246Z,15.82
2023-04-15T12:21:50.860Z,15.38
2023-04-15T12:24:22.536Z,15.38
2023-04-15T12:26:52.252Z,16.05
2023-04-15T12:29:26.110Z,15.68
2023-04-15T12:31:56.330Z,14.55
2023-04-15T12:34:29.860Z,13.63
2023-04-15T12:36:59.511Z,30.38
2023-04-15T12:39:30.601Z,13.60
2023-04-15T12:42:00.354Z,12.85
2023-04-15T12:44:30.557Z,13.85
2023-04-15T12:46:59.948Z,14.05
2023-04-15T12:49:29.290Z,13.23
2023-04-15T12:51:59.533Z,12.75
2023-04-15T12:54:28.233Z,12.50
2023-04-15T12:57:00.060Z,12.40
2023-04-15T12:59:30.055Z,14.13
2023-04-15T13:02:00.741Z,11.20
2023-04-15T13:04:30.935Z,10.38
2023-04-15T13:06:59.829Z,11.60
2023-04-15T13:09:28.301Z,12.27
2023-04-15T13:11:57.640Z,12.07
2023-04-15T13:14:27.081Z,12.90
2023-04-15T13:16:58.202Z,12.80
2023-04-15T13:19:26.804Z,12.02
2023-04-15T13:21:55.481Z,14.23
2023-04-15T13:24:23.874Z,13.10
2023-04-15T13:26:53.446Z,10.88
2023-04-15T13:29:22.276Z,36.88
2023-04-15T13:31:51.027Z,23.52
2023-04-15T13:34:20.950Z,19.52
2023-04-15T13:36:49.452Z,12.40
2023-04-15T13:39:17.921Z,10.73
2023-04-15T13:41:46.504Z,11.30
2023-04-15T13:44:14.950Z,11.85
2023-04-15T13:46:43.494Z,10.70
2023-04-15T13:49:12.029Z,10.18
2023-04-15T13:51:42.374Z,15.35
2023-04-15T13:54:10.815Z,11.75
2023-04-15T13:56:39.238Z,12.32
2023-04-15T13:59:08.680Z,13.95
2023-04-15T14:01:37.191Z,12.27
2023-04-15T14:04:06.182Z,12.07
2023-04-15T14:06:35.181Z,19.70
2023-04-15T14:09:05.323Z,11.50
2023-04-15T14:11:35.415Z,11.10
2023-04-15T14:14:04.142Z,10.50
2023-04-15T14:16:33.815Z,23.77
2023-04-15T14:19:02.768Z,12.35
2023-04-15T14:21:32.567Z,11.07
2023-04-15T14:24:01.132Z,9.32
2023-04-15T14:26:30.937Z,14.05
2023-04-15T14:28:59.305Z,11.65
2023-04-15T14:31:27.715Z,10.55
2023-04-15T14:33:56.286Z,10.32
2023-04-15T14:36:24.649Z,10.32
2023-04-15T14:38:53.084Z,10.93
2023-04-15T14:41:22.668Z,9.60
2023-04-15T14:43:52.556Z,10.82
2023-04-15T14:46:21.053Z,10.50
2023-04-15T14:48:49.549Z,10.93
2023-04-15T14:51:18.040Z,11.15
2023-04-15T14:53:46.659Z,10.18
2023-04-15T14:56:15.216Z,10.98
2023-04-15T14:58:43.612Z,11.18
2023-04-15T15:01:13.515Z,10.25
2023-04-15T15:03:42.444Z,9.73
2023-04-15T15:06:11.019Z,9.27
2023-04-15T15:08:39.483Z,9.73
2023-04-15T15:11:07.813Z,9.40
2023-04-15T15:13:36.285Z,8.73
2023-04-15T15:16:04.930Z,9.93
2023-04-15T15:18:34.761Z,19.15
2023-04-15T15:21:03.150Z,9.70
2023-04-15T15:23:31.943Z,9.18
2023-04-15T15:26:00.410Z,9.23
2023-04-15T15:28:28.857Z,10.88
2023-04-15T15:30:57.373Z,8.95
2023-04-15T15:33:25.770Z,8.90
2023-04-15T15:35:55.564Z,11.07
2023-04-15T15:38:24.044Z,10.15
2023-04-15T15:40:52.458Z,10.13
2023-04-15T15:43:20.832Z,9.32
2023-04-15T15:45:51.670Z,9.07
2023-04-15T15:48:20.220Z,8.20
2023-04-15T15:50:48.591Z,9.02
2023-04-15T15:53:20.873Z,8.88
2023-04-15T15:55:49.357Z,8.50
2023-04-15T15:58:17.703Z,9.10
2023-04-15T16:00:46.125Z,8.55
2023-04-15T16:03:14.902Z,7.95
2023-04-15T16:05:43.869Z,7.80
2023-04-15T16:08:12.266Z,8.38
2023-04-15T16:10:42.083Z,8.52
2023-04-15T16:13:10.656Z,8.68
2023-04-15T16:15:39.062Z,8.52
2023-04-15T16:18:07.453Z,9.40
2023-04-15T16:20:35.856Z,10.50
2023-04-15T16:23:12.766Z,17.00
2023-04-15T16:25:43.969Z,12.98
2023-04-15T16:28:25.582Z,13.52
2023-04-15T16:30:54.637Z,9.57
2023-04-15T16:33:23.073Z,11.48
2023-04-15T16:35:52.092Z,8.75
2023-04-15T16:38:20.749Z,8.57
2023-04-15T16:40:51.447Z,8.73
2023-04-15T16:43:20.121Z,9.05
2023-04-15T16:45:51.213Z,8.55
2023-04-15T16:48:20.620Z,12.20
2023-04-15T16:50:49.679Z,8.85
2023-04-15T16:53:18.070Z,8.77
2023-04-15T16:55:46.561Z,10.40
2023-04-15T16:58:16.352Z,8.35
2023-04-15T17:00:44.751Z,10.23
2023-04-15T17:03:13.494Z,9.30
2023-04-15T17:05:42.374Z,8.98
2023-04-15T17:08:10.856Z,9.27
2023-04-15T17:10:39.470Z,13.15
2023-04-15T17:13:08.134Z,9.13
2023-04-15T17:15:38.035Z,9.50
2023-04-15T17:18:06.546Z,8.77
2023-04-15T17:20:35.327Z,8.32
2023-04-15T17:23:04.771Z,8.15
2023-04-15T17:25:33.145Z,10.52
2023-04-15T17:28:01.880Z,9.23
2023-04-15T17:30:30.353Z,9.68
2023-04-15T17:33:00.094Z,8.23
2023-04-15T17:35:28.500Z,8.48
2023-04-15T17:37:56.861Z,8.52
2023-04-15T17:40:25.302Z,8.18
2023-04-15T17:42:53.625Z,7.43
2023-04-15T17:45:21.955Z,7.65
2023-04-15T17:47:50.343Z,8.57
2023-04-15T17:50:20.299Z,10.80
2023-04-15T17:52:48.688Z,11.40
2023-04-15T17:55:17.178Z,8.70
2023-04-15T17:57:47.094Z,13.60
2023-04-15T18:00:15.814Z,10.85
2023-04-15T18:02:44.659Z,11.52
2023-04-15T18:05:13.181Z,15.68
2023-04-15T18:07:43.038Z,8.32
2023-04-15T18:10:11.767Z,8.27
2023-04-15T18:12:40.127Z,28.70
2023-04-15T18:15:09.998Z,10.52
2023-04-15T18:17:38.428Z,9.27
2023-04-15T18:20:07.948Z,9.95
2023-04-15T18:22:36.415Z,9.95
2023-04-15T18:25:07.389Z,9.40
2023-04-15T18:27:38.919Z,8.57
2023-04-15T18:30:08.551Z,9.27
2023-04-15T18:32:37.549Z,10.05
2023-04-15T18:35:07.496Z,9.60
2023-04-15T18:37:35.931Z,9.38
2023-04-15T18:40:04.445Z,8.90
2023-04-15T18:42:34.178Z,9.25
2023-04-15T18:45:02.553Z,9.75
2023-04-15T18:47:31.191Z,9.20
2023-04-15T18:49:59.618Z,9.63
2023-04-15T18:52:28.000Z,8.85
2023-04-15T18:54:56.353Z,9.30
2023-04-15T18:57:31.029Z,11.02
2023-04-15T19:00:02.004Z,11.02
2023-04-15T19:02:30.642Z,9.90
2023-04-15T19:04:59.048Z,11.82
2023-04-15T19:07:27.447Z,9.60
2023-04-15T19:09:55.809Z,13.18
2023-04-15T19:12:24.382Z,8.77
2023-04-15T19:14:52.733Z,16.63
2023-04-15T19:17:22.533Z,9.30
2023-04-15T19:19:51.112Z,8.73
2023-04-15T19:22:19.671Z,9.90
2023-04-15T19:24:48.189Z,11.98
2023-04-15T19:27:16.708Z,13.45
2023-04-15T19:29:45.276Z,11.63
2023-04-15T19:32:14.273Z,13.55
2023-04-15T19:34:44.000Z,14.73
2023-04-15T19:37:12.662Z,19.33
2023-04-15T19:39:41.083Z,15.65
2023-04-15T19:42:09.449Z,12.98
2023-04-15T19:44:42.589Z,15.82
2023-04-15T19:47:11.144Z,17.45
2023-04-15T19:49:39.560Z,17.30
2023-04-15T19:52:09.254Z,15.48
2023-04-15T19:54:37.867Z,16.15
2023-04-15T19:57:06.498Z,16.27
2023-04-15T19:59:34.901Z,16.23
2023-04-15T20:02:03.515Z,15.77
2023-04-15T20:04:32.274Z,16.38
2023-04-15T20:07:00.947Z,16.40
2023-04-15T20:09:30.756Z,17.30
2023-04-15T20:12:46.714Z,19.60
2023-04-15T20:14:47.719Z,18.48
2023-04-15T20:17:16.222Z,19.05
2023-04-15T20:19:44.647Z,19.63
2023-04-15T20:22:13.104Z,17.02
2023-04-15T20:24:42.844Z,18.85
2023-04-15T20:27:11.233Z,20.27
2023-04-15T20:29:39.674Z,17.20
2023-04-15T20:32:11.259Z,17.00
2023-04-15T20:34:40.074Z,18.95
2023-04-15T20:37:08.453Z,18.38
2023-04-15T20:39:36.827Z,16.52
2023-04-15T20:42:10.067Z,20.00
2023-04-15T20:44:39.403Z,17.83
2023-04-15T20:47:08.582Z,18.38
2023-04-15T20:49:37.248Z,17.08
2023-04-15T20:52:07.298Z,18.27
2023-04-15T20:54:35.837Z,17.60
2023-04-15T20:57:04.190Z,18.80
2023-04-15T20:59:34.900Z,16.83
2023-04-15T21:02:03.504Z,18.10
2023-04-15T21:04:31.946Z,19.40
2023-04-15T21:07:00.358Z,20.92
2023-04-15T21:09:28.722Z,18.88
2023-04-15T21:12:01.743Z,19.00
2023-04-15T21:14:30.930Z,17.50
2023-04-15T21:17:03.336Z,17.40
2023-04-15T21:19:31.690Z,16.58
2023-04-15T21:22:00.097Z,17.15
2023-04-15T21:24:28.682Z,19.13
2023-04-15T21:26:57.330Z,20.98
2023-04-15T21:29:25.750Z,18.02
2023-04-15T21:31:56.821Z,19.40
2023-04-15T21:34:26.664Z,19.02
2023-04-15T21:36:55.036Z,19.75
2023-04-15T21:39:23.553Z,21.77
2023-04-15T21:41:51.930Z,19.90
2023-04-15T21:44:20.297Z,17.52
2023-04-15T21:46:51.312Z,20.17
2023-04-15T21:49:20.416Z,18.90
2023-04-15T21:51:50.336Z,18.23
2023-04-15T21:54:18.678Z,17.85
2023-04-15T21:56:49.717Z,17.80
2023-04-15T21:59:18.201Z,19.08
2023-04-15T22:01:49.410Z,18.55
2023-04-15T22:04:18.412Z,17.90
2023-04-15T22:06:46.933Z,17.52
2023-04-15T22:09:17.018Z,21.50
2023-04-15T22:11:47.158Z,21.80
2023-04-15T22:14:15.503Z,18.40
2023-04-15T22:16:44.388Z,19.42
2023-04-15T22:19:12.802Z,19.40
2023-04-15T22:21:41.155Z,20.00
2023-04-15T22:24:36.706Z,17.42
2023-04-15T22:26:59.802Z,17.40
2023-04-15T22:29:28.161Z,20.02
2023-04-15T22:31:56.507Z,20.65
2023-04-15T22:34:25.145Z,19.80
2023-04-15T22:36:53.624Z,19.67
2023-04-15T22:39:22.086Z,18.45
2023-04-15T22:41:51.316Z,18.45
2023-04-15T22:44:21.046Z,18.65
2023-04-15T22:46:51.676Z,17.70
2023-04-15T22:49:20.078Z,20.52
2023-04-15T22:51:48.464Z,17.77
2023-04-15T22:54:16.839Z,18.60
2023-04-15T22:56:45.337Z,18.58
2023-04-15T22:59:13.733Z,19.30
2023-04-15T23:01:43.603Z,19.50
2023-04-15T23:04:22.935Z,18.13
2023-04-15T23:06:55.233Z,17.70
2023-04-15T23:09:23.635Z,17.85
2023-04-15T23:11:52.378Z,18.00
2023-04-15T23:14:20.928Z,18.90
2023-04-15T23:16:50.649Z,18.45
2023-04-15T23:19:19.024Z,18.42
2023-04-15T23:21:47.481Z,19.10
2023-04-15T23:24:15.858Z,18.85
2023-04-15T23:26:44.298Z,18.70
2023-04-15T23:29:12.621Z,18.75
2023-04-15T23:31:41.881Z,19.05
2023-04-15T23:34:11.724Z,18.02
2023-04-15T23:36:40.494Z,19.95
2023-04-15T23:39:09.059Z,19.83
2023-04-15T23:41:37.657Z,22.65
2023-04-15T23:44:06.400Z,20.00
2023-04-15T23:46:34.845Z,19.63
2023-04-15T23:49:03.274Z,20.23
2023-04-15T23:51:32.985Z,19.27
2023-04-15T23:54:01.314Z,20.70
2023-04-15T23:56:29.747Z,21.30
2023-04-15T23:58:58.066Z,22.15
